sensor_id;sensor_type;location;lat;lon;timestamp;P1;durP1;ratioP1;P2;durP2;ratioP2
7607;SDS011;3845;48.120;11.534;2023-12-04T00:01:33;6.73;;;4.70;;
7607;SDS011;3845;48.120;11.534;2023-12-04T00:03:59;7.97;;;5.50;;
7607;SDS011;3845;48.120;11.534;2023-12-04T00:06:24;7.70;;;5.83;;
7607;SDS011;3845;48.120;11.534;2023-12-04T00:08:49;8.47;;;5.83;;
7607;SDS011;3845;48.120;11.534;2023-12-04T00:11:15;8.67;;;6.10;;
7607;SDS011;3845;48.120;11.534;2023-12-04T00:13:40;8.87;;;5.90;;
7607;SDS011;3845;48.120;11.534;2023-12-04T00:16:05;9.63;;;6.20;;
7607;SDS011;3845;48.120;11.534;2023-12-04T00:18:31;10.83;;;6.83;;
7607;SDS011;3845;48.120;11.534;2023-12-04T00:20:56;8.53;;;6.40;;
7607;SDS011;3845;48.120;11.534;2023-12-04T00:23:22;8.77;;;6.20;;
7607;SDS011;3845;48.120;11.534;2023-12-04T00:25:47;9.20;;;6.00;;
7607;SDS011;3845;48.120;11.534;2023-12-04T00:28:12;7.53;;;5.53;;
7607;SDS011;3845;48.120;11.534;2023-12-04T00:30:37;9.00;;;5.97;;
7607;SDS011;3845;48.120;11.534;2023-12-04T00:33:03;9.97;;;7.00;;
7607;SDS011;3845;48.120;11.534;2023-12-04T00:35:28;7.80;;;5.70;;
7607;SDS011;3845;48.120;11.534;2023-12-04T00:37:53;9.73;;;6.73;;
7607;SDS011;3845;48.120;11.534;2023-12-04T00:40:18;8.10;;;6.17;;
7607;SDS011;3845;48.120;11.534;2023-12-04T00:42:44;8.60;;;6.37;;
7607;SDS011;3845;48.120;11.534;2023-12-04T00:45:09;7.37;;;5.50;;
7607;SDS011;3845;48.120;11.534;2023-12-04T00:47:34;8.40;;;5.80;;
7607;SDS011;3845;48.120;11.534;2023-12-04T00:50:00;10.43;;;6.67;;
7607;SDS011;3845;48.120;11.534;2023-12-04T00:52:25;8.37;;;5.80;;
7607;SDS011;3845;48.120;11.534;2023-12-04T00:54:50;6.87;;;5.23;;
7607;SDS011;3845;48.120;11.534;2023-12-04T00:57:15;7.40;;;5.47;;
7607;SDS011;3845;48.120;11.534;2023-12-04T00:59:41;7.57;;;5.70;;
7607;SDS011;3845;48.120;11.534;2023-12-04T01:02:06;9.67;;;6.37;;
7607;SDS011;3845;48.120;11.534;2023-12-04T01:04:32;8.47;;;6.33;;
7607;SDS011;3845;48.120;11.534;2023-12-04T01:06:57;8.47;;;6.10;;
7607;SDS011;3845;48.120;11.534;2023-12-04T01:09:22;6.67;;;5.17;;
7607;SDS011;3845;48.120;11.534;2023-12-04T01:11:52;9.87;;;6.60;;
7607;SDS011;3845;48.120;11.534;2023-12-04T01:14:18;9.37;;;6.57;;
7607;SDS011;3845;48.120;11.534;2023-12-04T01:16:44;6.77;;;5.43;;
7607;SDS011;3845;48.120;11.534;2023-12-04T01:19:10;9.03;;;6.43;;
7607;SDS011;3845;48.120;11.534;2023-12-04T01:21:35;7.10;;;5.53;;
7607;SDS011;3845;48.120;11.534;2023-12-04T01:24:00;7.43;;;5.70;;
7607;SDS011;3845;48.120;11.534;2023-12-04T01:26:26;9.27;;;6.23;;
7607;SDS011;3845;48.120;11.534;2023-12-04T01:28:51;7.70;;;5.40;;
7607;SDS011;3845;48.120;11.534;2023-12-04T01:31:16;8.50;;;5.70;;
7607;SDS011;3845;48.120;11.534;2023-12-04T01:33:41;6.80;;;5.23;;
7607;SDS011;3845;48.120;11.534;2023-12-04T01:36:07;7.03;;;5.53;;
7607;SDS011;3845;48.120;11.534;2023-12-04T01:38:32;8.00;;;5.90;;
7607;SDS011;3845;48.120;11.534;2023-12-04T01:40:58;6.17;;;5.07;;
7607;SDS011;3845;48.120;11.534;2023-12-04T01:43:23;8.37;;;5.53;;
7607;SDS011;3845;48.120;11.534;2023-12-04T01:45:49;5.73;;;4.60;;
7607;SDS011;3845;48.120;11.534;2023-12-04T01:48:14;6.80;;;4.93;;
7607;SDS011;3845;48.120;11.534;2023-12-04T01:50:40;6.47;;;4.77;;
7607;SDS011;3845;48.120;11.534;2023-12-04T01:53:05;6.63;;;4.90;;
7607;SDS011;3845;48.120;11.534;2023-12-04T01:55:31;7.17;;;5.03;;
7607;SDS011;3845;48.120;11.534;2023-12-04T01:57:57;7.33;;;5.47;;
7607;SDS011;3845;48.120;11.534;2023-12-04T02:00:24;7.03;;;5.00;;
7607;SDS011;3845;48.120;11.534;2023-12-04T02:02:50;6.77;;;4.93;;
7607;SDS011;3845;48.120;11.534;2023-12-04T02:05:15;8.23;;;5.60;;
7607;SDS011;3845;48.120;11.534;2023-12-04T02:07:41;6.97;;;4.40;;
7607;SDS011;3845;48.120;11.534;2023-12-04T02:10:08;6.43;;;4.50;;
7607;SDS011;3845;48.120;11.534;2023-12-04T02:12:34;6.80;;;5.17;;
7607;SDS011;3845;48.120;11.534;2023-12-04T02:14:59;6.50;;;5.10;;
7607;SDS011;3845;48.120;11.534;2023-12-04T02:17:24;7.00;;;4.97;;
7607;SDS011;3845;48.120;11.534;2023-12-04T02:19:50;7.97;;;5.80;;
7607;SDS011;3845;48.120;11.534;2023-12-04T02:22:16;7.70;;;5.30;;
7607;SDS011;3845;48.120;11.534;2023-12-04T02:24:43;5.63;;;4.00;;
7607;SDS011;3845;48.120;11.534;2023-12-04T02:27:20;7.10;;;5.10;;
7607;SDS011;3845;48.120;11.534;2023-12-04T02:29:51;5.70;;;4.67;;
7607;SDS011;3845;48.120;11.534;2023-12-04T02:32:18;6.77;;;5.23;;
7607;SDS011;3845;48.120;11.534;2023-12-04T02:34:44;7.20;;;4.77;;
7607;SDS011;3845;48.120;11.534;2023-12-04T02:37:11;6.00;;;4.67;;
7607;SDS011;3845;48.120;11.534;2023-12-04T02:39:36;5.37;;;3.90;;
7607;SDS011;3845;48.120;11.534;2023-12-04T02:42:02;6.37;;;4.60;;
7607;SDS011;3845;48.120;11.534;2023-12-04T02:44:28;6.80;;;4.57;;
7607;SDS011;3845;48.120;11.534;2023-12-04T02:46:53;5.43;;;4.00;;
7607;SDS011;3845;48.120;11.534;2023-12-04T02:49:18;6.50;;;4.30;;
7607;SDS011;3845;48.120;11.534;2023-12-04T02:51:43;6.43;;;4.63;;
7607;SDS011;3845;48.120;11.534;2023-12-04T02:54:09;5.60;;;4.30;;
7607;SDS011;3845;48.120;11.534;2023-12-04T02:56:34;5.90;;;4.33;;
7607;SDS011;3845;48.120;11.534;2023-12-04T02:58:59;6.00;;;4.40;;
7607;SDS011;3845;48.120;11.534;2023-12-04T03:01:24;5.83;;;4.50;;
7607;SDS011;3845;48.120;11.534;2023-12-04T03:03:50;6.13;;;4.47;;
7607;SDS011;3845;48.120;11.534;2023-12-04T03:06:15;7.13;;;5.23;;
7607;SDS011;3845;48.120;11.534;2023-12-04T03:08:43;6.97;;;5.03;;
7607;SDS011;3845;48.120;11.534;2023-12-04T03:11:08;5.80;;;4.27;;
7607;SDS011;3845;48.120;11.534;2023-12-04T03:13:34;6.00;;;4.40;;
7607;SDS011;3845;48.120;11.534;2023-12-04T03:15:59;5.40;;;4.20;;
7607;SDS011;3845;48.120;11.534;2023-12-04T03:18:25;6.03;;;4.37;;
7607;SDS011;3845;48.120;11.534;2023-12-04T03:20:51;5.93;;;4.60;;
7607;SDS011;3845;48.120;11.534;2023-12-04T03:23:16;7.23;;;4.97;;
7607;SDS011;3845;48.120;11.534;2023-12-04T03:25:41;6.90;;;5.10;;
7607;SDS011;3845;48.120;11.534;2023-12-04T03:28:07;6.23;;;4.47;;
7607;SDS011;3845;48.120;11.534;2023-12-04T03:30:32;6.57;;;4.87;;
7607;SDS011;3845;48.120;11.534;2023-12-04T03:32:57;5.30;;;4.13;;
7607;SDS011;3845;48.120;11.534;2023-12-04T03:35:23;6.17;;;4.17;;
7607;SDS011;3845;48.120;11.534;2023-12-04T03:37:48;6.37;;;4.70;;
7607;SDS011;3845;48.120;11.534;2023-12-04T03:40:14;5.53;;;4.30;;
7607;SDS011;3845;48.120;11.534;2023-12-04T03:42:40;5.77;;;4.47;;
7607;SDS011;3845;48.120;11.534;2023-12-04T03:45:06;7.47;;;4.67;;
7607;SDS011;3845;48.120;11.534;2023-12-04T03:47:31;5.77;;;4.40;;
7607;SDS011;3845;48.120;11.534;2023-12-04T03:49:57;5.50;;;4.20;;
7607;SDS011;3845;48.120;11.534;2023-12-04T03:52:22;5.77;;;3.90;;
7607;SDS011;3845;48.120;11.534;2023-12-04T03:54:48;5.47;;;3.87;;
7607;SDS011;3845;48.120;11.534;2023-12-04T03:57:13;5.83;;;4.30;;
7607;SDS011;3845;48.120;11.534;2023-12-04T03:59:38;6.90;;;4.20;;
7607;SDS011;3845;48.120;11.534;2023-12-04T04:02:03;5.80;;;4.20;;
7607;SDS011;3845;48.120;11.534;2023-12-04T04:04:29;5.50;;;4.40;;
7607;SDS011;3845;48.120;11.534;2023-12-04T04:06:54;5.87;;;3.93;;
7607;SDS011;3845;48.120;11.534;2023-12-04T04:09:20;6.20;;;4.60;;
7607;SDS011;3845;48.120;11.534;2023-12-04T04:11:45;5.60;;;3.97;;
7607;SDS011;3845;48.120;11.534;2023-12-04T04:14:10;5.83;;;3.80;;
7607;SDS011;3845;48.120;11.534;2023-12-04T04:16:36;5.30;;;4.03;;
7607;SDS011;3845;48.120;11.534;2023-12-04T04:19:01;5.30;;;4.07;;
7607;SDS011;3845;48.120;11.534;2023-12-04T04:21:26;5.70;;;4.23;;
7607;SDS011;3845;48.120;11.534;2023-12-04T04:23:51;5.07;;;3.83;;
7607;SDS011;3845;48.120;11.534;2023-12-04T04:26:18;5.97;;;4.10;;
7607;SDS011;3845;48.120;11.534;2023-12-04T04:28:44;5.57;;;4.20;;
7607;SDS011;3845;48.120;11.534;2023-12-04T04:31:09;5.67;;;4.30;;
7607;SDS011;3845;48.120;11.534;2023-12-04T04:33:34;5.10;;;3.77;;
7607;SDS011;3845;48.120;11.534;2023-12-04T04:35:59;5.57;;;4.07;;
7607;SDS011;3845;48.120;11.534;2023-12-04T04:38:25;5.50;;;3.80;;
7607;SDS011;3845;48.120;11.534;2023-12-04T04:40:50;5.70;;;4.03;;
7607;SDS011;3845;48.120;11.534;2023-12-04T04:43:17;5.20;;;3.90;;
7607;SDS011;3845;48.120;11.534;2023-12-04T04:45:43;6.43;;;4.13;;
7607;SDS011;3845;48.120;11.534;2023-12-04T04:48:08;6.63;;;4.43;;
7607;SDS011;3845;48.120;11.534;2023-12-04T04:50:33;5.70;;;4.40;;
7607;SDS011;3845;48.120;11.534;2023-12-04T04:52:58;6.73;;;4.47;;
7607;SDS011;3845;48.120;11.534;2023-12-04T04:55:24;5.57;;;3.70;;
7607;SDS011;3845;48.120;11.534;2023-12-04T04:57:49;4.50;;;3.60;;
7607;SDS011;3845;48.120;11.534;2023-12-04T05:00:14;5.30;;;4.00;;
7607;SDS011;3845;48.120;11.534;2023-12-04T05:02:41;6.33;;;3.97;;
7607;SDS011;3845;48.120;11.534;2023-12-04T05:05:06;5.00;;;3.90;;
7607;SDS011;3845;48.120;11.534;2023-12-04T05:07:32;4.60;;;3.27;;
7607;SDS011;3845;48.120;11.534;2023-12-04T05:09:57;5.03;;;3.77;;
7607;SDS011;3845;48.120;11.534;2023-12-04T05:12:22;5.70;;;4.27;;
7607;SDS011;3845;48.120;11.534;2023-12-04T05:14:47;5.30;;;3.97;;
7607;SDS011;3845;48.120;11.534;2023-12-04T05:17:13;4.47;;;3.47;;
7607;SDS011;3845;48.120;11.534;2023-12-04T05:19:38;5.43;;;4.00;;
7607;SDS011;3845;48.120;11.534;2023-12-04T05:22:03;6.97;;;4.80;;
7607;SDS011;3845;48.120;11.534;2023-12-04T05:24:28;4.87;;;3.77;;
7607;SDS011;3845;48.120;11.534;2023-12-04T05:26:54;5.10;;;4.07;;
7607;SDS011;3845;48.120;11.534;2023-12-04T05:29:19;6.33;;;4.40;;
7607;SDS011;3845;48.120;11.534;2023-12-04T05:31:44;6.07;;;4.57;;
7607;SDS011;3845;48.120;11.534;2023-12-04T05:34:10;5.93;;;4.30;;
7607;SDS011;3845;48.120;11.534;2023-12-04T05:36:35;5.60;;;4.00;;
7607;SDS011;3845;48.120;11.534;2023-12-04T05:39:00;5.67;;;4.00;;
7607;SDS011;3845;48.120;11.534;2023-12-04T05:41:25;5.57;;;4.37;;
7607;SDS011;3845;48.120;11.534;2023-12-04T05:43:51;4.90;;;3.73;;
7607;SDS011;3845;48.120;11.534;2023-12-04T05:46:16;5.30;;;3.70;;
7607;SDS011;3845;48.120;11.534;2023-12-04T05:48:41;6.33;;;4.37;;
7607;SDS011;3845;48.120;11.534;2023-12-04T05:51:07;6.77;;;4.47;;
7607;SDS011;3845;48.120;11.534;2023-12-04T05:53:32;4.90;;;4.00;;
7607;SDS011;3845;48.120;11.534;2023-12-04T05:55:57;5.73;;;3.87;;
7607;SDS011;3845;48.120;11.534;2023-12-04T05:58:23;6.67;;;4.43;;
7607;SDS011;3845;48.120;11.534;2023-12-04T06:00:48;5.40;;;3.73;;
7607;SDS011;3845;48.120;11.534;2023-12-04T06:03:13;4.83;;;3.83;;
7607;SDS011;3845;48.120;11.534;2023-12-04T06:05:39;5.93;;;4.13;;
7607;SDS011;3845;48.120;11.534;2023-12-04T06:08:04;6.87;;;4.70;;
7607;SDS011;3845;48.120;11.534;2023-12-04T06:10:29;6.23;;;4.23;;
7607;SDS011;3845;48.120;11.534;2023-12-04T06:12:55;4.90;;;3.90;;
7607;SDS011;3845;48.120;11.534;2023-12-04T06:15:20;6.23;;;4.07;;
7607;SDS011;3845;48.120;11.534;2023-12-04T06:17:45;5.60;;;4.10;;
7607;SDS011;3845;48.120;11.534;2023-12-04T06:20:11;5.27;;;3.73;;
7607;SDS011;3845;48.120;11.534;2023-12-04T06:22:36;4.50;;;3.47;;
7607;SDS011;3845;48.120;11.534;2023-12-04T06:25:02;4.53;;;3.50;;
7607;SDS011;3845;48.120;11.534;2023-12-04T06:27:28;5.73;;;3.93;;
7607;SDS011;3845;48.120;11.534;2023-12-04T06:29:54;5.73;;;3.53;;
7607;SDS011;3845;48.120;11.534;2023-12-04T06:32:20;5.73;;;4.03;;
7607;SDS011;3845;48.120;11.534;2023-12-04T06:34:45;6.13;;;4.03;;
7607;SDS011;3845;48.120;11.534;2023-12-04T06:37:11;6.07;;;4.10;;
7607;SDS011;3845;48.120;11.534;2023-12-04T06:39:38;5.57;;;3.70;;
7607;SDS011;3845;48.120;11.534;2023-12-04T06:42:04;5.93;;;4.10;;
7607;SDS011;3845;48.120;11.534;2023-12-04T06:44:31;4.83;;;3.57;;
7607;SDS011;3845;48.120;11.534;2023-12-04T06:46:56;6.23;;;4.00;;
7607;SDS011;3845;48.120;11.534;2023-12-04T06:49:25;4.67;;;3.50;;
7607;SDS011;3845;48.120;11.534;2023-12-04T06:51:54;4.60;;;3.43;;
7607;SDS011;3845;48.120;11.534;2023-12-04T06:54:20;20.17;;;10.37;;
7607;SDS011;3845;48.120;11.534;2023-12-04T06:56:45;30.53;;;15.53;;
7607;SDS011;3845;48.120;11.534;2023-12-04T06:59:10;19.30;;;11.07;;
7607;SDS011;3845;48.120;11.534;2023-12-04T07:01:36;15.03;;;9.30;;
7607;SDS011;3845;48.120;11.534;2023-12-04T07:04:01;9.93;;;6.77;;
7607;SDS011;3845;48.120;11.534;2023-12-04T07:06:26;9.20;;;6.17;;
7607;SDS011;3845;48.120;11.534;2023-12-04T07:08:51;8.33;;;5.33;;
7607;SDS011;3845;48.120;11.534;2023-12-04T07:11:17;6.30;;;4.57;;
7607;SDS011;3845;48.120;11.534;2023-12-04T07:13:42;6.50;;;4.57;;
7607;SDS011;3845;48.120;11.534;2023-12-04T07:16:08;7.37;;;5.07;;
7607;SDS011;3845;48.120;11.534;2023-12-04T07:18:33;5.23;;;3.57;;
7607;SDS011;3845;48.120;11.534;2023-12-04T07:20:59;5.43;;;3.90;;
7607;SDS011;3845;48.120;11.534;2023-12-04T07:23:25;5.40;;;4.10;;
7607;SDS011;3845;48.120;11.534;2023-12-04T07:25:50;5.30;;;3.70;;
7607;SDS011;3845;48.120;11.534;2023-12-04T07:28:16;5.73;;;4.07;;
7607;SDS011;3845;48.120;11.534;2023-12-04T07:30:42;4.50;;;3.33;;
7607;SDS011;3845;48.120;11.534;2023-12-04T07:33:07;5.47;;;3.90;;
7607;SDS011;3845;48.120;11.534;2023-12-04T07:35:32;5.90;;;3.83;;
7607;SDS011;3845;48.120;11.534;2023-12-04T07:37:58;5.23;;;3.60;;
7607;SDS011;3845;48.120;11.534;2023-12-04T07:40:24;5.90;;;4.07;;
7607;SDS011;3845;48.120;11.534;2023-12-04T07:42:49;4.40;;;3.27;;
7607;SDS011;3845;48.120;11.534;2023-12-04T07:45:15;5.93;;;3.90;;
7607;SDS011;3845;48.120;11.534;2023-12-04T07:47:41;5.90;;;4.23;;
7607;SDS011;3845;48.120;11.534;2023-12-04T07:50:06;8.40;;;4.20;;
7607;SDS011;3845;48.120;11.534;2023-12-04T07:52:32;5.57;;;3.67;;
7607;SDS011;3845;48.120;11.534;2023-12-04T07:54:57;5.43;;;4.00;;
7607;SDS011;3845;48.120;11.534;2023-12-04T07:57:22;6.47;;;4.30;;
7607;SDS011;3845;48.120;11.534;2023-12-04T07:59:48;6.00;;;4.00;;
7607;SDS011;3845;48.120;11.534;2023-12-04T08:02:13;6.13;;;4.20;;
7607;SDS011;3845;48.120;11.534;2023-12-04T08:04:38;6.00;;;4.33;;
7607;SDS011;3845;48.120;11.534;2023-12-04T08:07:03;6.37;;;4.20;;
7607;SDS011;3845;48.120;11.534;2023-12-04T08:09:30;7.00;;;5.10;;
7607;SDS011;3845;48.120;11.534;2023-12-04T08:11:55;6.20;;;4.30;;
7607;SDS011;3845;48.120;11.534;2023-12-04T08:14:20;6.40;;;4.27;;
7607;SDS011;3845;48.120;11.534;2023-12-04T08:16:47;5.20;;;3.90;;
7607;SDS011;3845;48.120;11.534;2023-12-04T08:19:12;5.80;;;4.17;;
7607;SDS011;3845;48.120;11.534;2023-12-04T08:21:38;5.20;;;3.97;;
7607;SDS011;3845;48.120;11.534;2023-12-04T08:24:03;6.53;;;4.27;;
7607;SDS011;3845;48.120;11.534;2023-12-04T08:26:28;6.60;;;4.43;;
7607;SDS011;3845;48.120;11.534;2023-12-04T08:28:54;6.03;;;3.90;;
7607;SDS011;3845;48.120;11.534;2023-12-04T08:31:19;6.10;;;4.40;;
7607;SDS011;3845;48.120;11.534;2023-12-04T08:33:44;6.50;;;4.67;;
7607;SDS011;3845;48.120;11.534;2023-12-04T08:36:10;5.93;;;4.30;;
7607;SDS011;3845;48.120;11.534;2023-12-04T08:38:36;5.07;;;3.67;;
7607;SDS011;3845;48.120;11.534;2023-12-04T08:41:01;5.90;;;4.20;;
7607;SDS011;3845;48.120;11.534;2023-12-04T08:43:28;6.13;;;4.30;;
7607;SDS011;3845;48.120;11.534;2023-12-04T08:45:53;6.33;;;4.67;;
7607;SDS011;3845;48.120;11.534;2023-12-04T08:48:19;6.60;;;4.03;;
7607;SDS011;3845;48.120;11.534;2023-12-04T08:50:44;7.03;;;4.43;;
7607;SDS011;3845;48.120;11.534;2023-12-04T08:53:10;5.97;;;3.90;;
7607;SDS011;3845;48.120;11.534;2023-12-04T08:55:35;7.30;;;4.93;;
7607;SDS011;3845;48.120;11.534;2023-12-04T08:58:00;6.27;;;4.23;;
7607;SDS011;3845;48.120;11.534;2023-12-04T09:00:26;6.33;;;4.47;;
7607;SDS011;3845;48.120;11.534;2023-12-04T09:02:51;6.80;;;4.73;;
7607;SDS011;3845;48.120;11.534;2023-12-04T09:05:16;6.00;;;4.40;;
7607;SDS011;3845;48.120;11.534;2023-12-04T09:07:41;5.50;;;4.30;;
7607;SDS011;3845;48.120;11.534;2023-12-04T09:10:07;6.07;;;4.60;;
7607;SDS011;3845;48.120;11.534;2023-12-04T09:12:32;7.40;;;5.00;;
7607;SDS011;3845;48.120;11.534;2023-12-04T09:15:00;5.63;;;4.47;;
7607;SDS011;3845;48.120;11.534;2023-12-04T09:17:26;5.37;;;4.40;;
7607;SDS011;3845;48.120;11.534;2023-12-04T09:19:52;5.47;;;4.27;;
7607;SDS011;3845;48.120;11.534;2023-12-04T09:22:17;4.50;;;3.53;;
7607;SDS011;3845;48.120;11.534;2023-12-04T09:24:43;5.97;;;4.00;;
7607;SDS011;3845;48.120;11.534;2023-12-04T09:27:09;5.97;;;4.43;;
7607;SDS011;3845;48.120;11.534;2023-12-04T09:29:34;5.80;;;4.27;;
7607;SDS011;3845;48.120;11.534;2023-12-04T09:31:59;5.60;;;4.13;;
7607;SDS011;3845;48.120;11.534;2023-12-04T09:34:25;5.60;;;4.50;;
7607;SDS011;3845;48.120;11.534;2023-12-04T09:36:50;6.07;;;4.47;;
7607;SDS011;3845;48.120;11.534;2023-12-04T09:39:15;5.90;;;4.20;;
7607;SDS011;3845;48.120;11.534;2023-12-04T09:41:41;12.37;;;9.40;;
7607;SDS011;3845;48.120;11.534;2023-12-04T09:44:07;14.67;;;10.73;;
7607;SDS011;3845;48.120;11.534;2023-12-04T09:46:33;18.97;;;13.53;;
7607;SDS011;3845;48.120;11.534;2023-12-04T09:48:59;19.67;;;12.63;;
7607;SDS011;3845;48.120;11.534;2023-12-04T09:51:25;21.43;;;16.23;;
7607;SDS011;3845;48.120;11.534;2023-12-04T09:53:52;19.83;;;13.43;;
7607;SDS011;3845;48.120;11.534;2023-12-04T09:56:17;17.67;;;12.60;;
7607;SDS011;3845;48.120;11.534;2023-12-04T09:58:43;20.80;;;14.73;;
7607;SDS011;3845;48.120;11.534;2023-12-04T10:01:09;23.37;;;13.80;;
7607;SDS011;3845;48.120;11.534;2023-12-04T10:03:35;17.53;;;12.30;;
7607;SDS011;3845;48.120;11.534;2023-12-04T10:06:01;16.67;;;11.77;;
7607;SDS011;3845;48.120;11.534;2023-12-04T10:08:27;15.27;;;10.13;;
7607;SDS011;3845;48.120;11.534;2023-12-04T10:10:52;17.37;;;12.17;;
7607;SDS011;3845;48.120;11.534;2023-12-04T10:13:17;21.93;;;12.43;;
7607;SDS011;3845;48.120;11.534;2023-12-04T10:15:46;19.47;;;13.47;;
7607;SDS011;3845;48.120;11.534;2023-12-04T10:18:28;16.13;;;11.20;;
7607;SDS011;3845;48.120;11.534;2023-12-04T10:20:58;21.13;;;13.30;;
7607;SDS011;3845;48.120;11.534;2023-12-04T10:23:40;16.80;;;11.23;;
7607;SDS011;3845;48.120;11.534;2023-12-04T10:26:06;16.10;;;10.90;;
7607;SDS011;3845;48.120;11.534;2023-12-04T10:28:32;16.33;;;11.10;;
7607;SDS011;3845;48.120;11.534;2023-12-04T10:30:58;16.47;;;10.57;;
7607;SDS011;3845;48.120;11.534;2023-12-04T10:33:24;12.90;;;9.73;;
7607;SDS011;3845;48.120;11.534;2023-12-04T10:35:52;13.13;;;9.60;;
7607;SDS011;3845;48.120;11.534;2023-12-04T10:38:17;12.87;;;9.57;;
7607;SDS011;3845;48.120;11.534;2023-12-04T10:40:43;14.50;;;9.90;;
7607;SDS011;3845;48.120;11.534;2023-12-04T10:45:33;22.20;;;12.70;;
7607;SDS011;3845;48.120;11.534;2023-12-04T10:47:59;22.57;;;14.70;;
7607;SDS011;3845;48.120;11.534;2023-12-04T10:50:25;23.67;;;15.63;;
7607;SDS011;3845;48.120;11.534;2023-12-04T10:52:52;21.23;;;13.50;;
7607;SDS011;3845;48.120;11.534;2023-12-04T10:55:18;17.63;;;11.93;;
7607;SDS011;3845;48.120;11.534;2023-12-04T10:57:44;11.97;;;8.77;;
7607;SDS011;3845;48.120;11.534;2023-12-04T11:00:10;17.43;;;12.77;;
7607;SDS011;3845;48.120;11.534;2023-12-04T11:02:37;15.13;;;10.80;;
7607;SDS011;3845;48.120;11.534;2023-12-04T11:05:07;14.30;;;10.13;;
7607;SDS011;3845;48.120;11.534;2023-12-04T11:07:38;11.53;;;8.37;;
7607;SDS011;3845;48.120;11.534;2023-12-04T11:10:06;14.07;;;10.13;;
7607;SDS011;3845;48.120;11.534;2023-12-04T11:12:33;11.83;;;8.33;;
7607;SDS011;3845;48.120;11.534;2023-12-04T11:14:59;12.43;;;8.73;;
7607;SDS011;3845;48.120;11.534;2023-12-04T11:17:27;11.30;;;8.07;;
7607;SDS011;3845;48.120;11.534;2023-12-04T11:19:58;11.40;;;7.50;;
7607;SDS011;3845;48.120;11.534;2023-12-04T11:22:25;10.10;;;7.20;;
7607;SDS011;3845;48.120;11.534;2023-12-04T11:24:50;10.33;;;7.27;;
7607;SDS011;3845;48.120;11.534;2023-12-04T11:27:16;12.33;;;7.67;;
7607;SDS011;3845;48.120;11.534;2023-12-04T11:29:42;10.37;;;7.03;;
7607;SDS011;3845;48.120;11.534;2023-12-04T11:32:13;10.07;;;7.10;;
7607;SDS011;3845;48.120;11.534;2023-12-04T11:34:46;9.50;;;6.70;;
7607;SDS011;3845;48.120;11.534;2023-12-04T11:37:12;8.93;;;6.33;;
7607;SDS011;3845;48.120;11.534;2023-12-04T11:39:38;8.37;;;5.57;;
7607;SDS011;3845;48.120;11.534;2023-12-04T11:42:06;8.53;;;5.97;;
7607;SDS011;3845;48.120;11.534;2023-12-04T11:44:32;7.90;;;5.30;;
7607;SDS011;3845;48.120;11.534;2023-12-04T11:47:02;7.43;;;5.40;;
7607;SDS011;3845;48.120;11.534;2023-12-04T11:49:29;8.60;;;5.20;;
7607;SDS011;3845;48.120;11.534;2023-12-04T11:51:55;7.67;;;5.63;;
7607;SDS011;3845;48.120;11.534;2023-12-04T11:54:25;17.17;;;9.83;;
7607;SDS011;3845;48.120;11.534;2023-12-04T11:59:38;15.67;;;10.00;;
7607;SDS011;3845;48.120;11.534;2023-12-04T12:02:04;18.53;;;12.87;;
7607;SDS011;3845;48.120;11.534;2023-12-04T12:04:32;16.40;;;11.63;;
7607;SDS011;3845;48.120;11.534;2023-12-04T12:06:57;13.27;;;9.30;;
7607;SDS011;3845;48.120;11.534;2023-12-04T12:09:23;12.43;;;8.60;;
7607;SDS011;3845;48.120;11.534;2023-12-04T12:11:48;14.20;;;10.57;;
7607;SDS011;3845;48.120;11.534;2023-12-04T12:14:13;12.47;;;9.10;;
7607;SDS011;3845;48.120;11.534;2023-12-04T12:16:39;13.03;;;9.43;;
7607;SDS011;3845;48.120;11.534;2023-12-04T12:19:04;11.60;;;8.00;;
7607;SDS011;3845;48.120;11.534;2023-12-04T12:21:29;10.90;;;8.13;;
7607;SDS011;3845;48.120;11.534;2023-12-04T12:23:55;10.33;;;8.00;;
7607;SDS011;3845;48.120;11.534;2023-12-04T12:26:20;12.63;;;8.23;;
7607;SDS011;3845;48.120;11.534;2023-12-04T12:28:45;14.17;;;9.33;;
7607;SDS011;3845;48.120;11.534;2023-12-04T12:31:11;10.17;;;7.57;;
7607;SDS011;3845;48.120;11.534;2023-12-04T12:33:36;9.47;;;7.57;;
7607;SDS011;3845;48.120;11.534;2023-12-04T12:36:02;9.37;;;6.80;;
7607;SDS011;3845;48.120;11.534;2023-12-04T12:38:29;8.73;;;6.93;;
7607;SDS011;3845;48.120;11.534;2023-12-04T12:40:55;8.97;;;6.27;;
7607;SDS011;3845;48.120;11.534;2023-12-04T12:43:20;7.80;;;5.93;;
7607;SDS011;3845;48.120;11.534;2023-12-04T12:45:48;9.40;;;6.73;;
7607;SDS011;3845;48.120;11.534;2023-12-04T12:48:13;7.33;;;5.70;;
7607;SDS011;3845;48.120;11.534;2023-12-04T12:50:41;13.43;;;8.27;;
7607;SDS011;3845;48.120;11.534;2023-12-04T12:53:12;11.37;;;7.80;;
7607;SDS011;3845;48.120;11.534;2023-12-04T12:55:41;10.37;;;7.30;;
7607;SDS011;3845;48.120;11.534;2023-12-04T12:58:08;13.70;;;9.47;;
7607;SDS011;3845;48.120;11.534;2023-12-04T13:00:34;9.77;;;7.23;;
7607;SDS011;3845;48.120;11.534;2023-12-04T13:02:59;9.87;;;7.27;;
7607;SDS011;3845;48.120;11.534;2023-12-04T13:05:26;10.37;;;7.00;;
7607;SDS011;3845;48.120;11.534;2023-12-04T13:07:51;10.20;;;6.30;;
7607;SDS011;3845;48.120;11.534;2023-12-04T13:10:16;7.83;;;5.83;;
7607;SDS011;3845;48.120;11.534;2023-12-04T13:12:41;11.07;;;8.97;;
7607;SDS011;3845;48.120;11.534;2023-12-04T13:15:07;13.20;;;8.30;;
7607;SDS011;3845;48.120;11.534;2023-12-04T13:17:32;11.57;;;7.97;;
7607;SDS011;3845;48.120;11.534;2023-12-04T13:19:58;9.90;;;7.63;;
7607;SDS011;3845;48.120;11.534;2023-12-04T13:22:23;7.10;;;5.80;;
7607;SDS011;3845;48.120;11.534;2023-12-04T13:24:49;9.27;;;7.03;;
7607;SDS011;3845;48.120;11.534;2023-12-04T13:27:14;11.93;;;6.87;;
7607;SDS011;3845;48.120;11.534;2023-12-04T13:29:40;9.10;;;6.17;;
7607;SDS011;3845;48.120;11.534;2023-12-04T13:32:05;9.57;;;6.57;;
7607;SDS011;3845;48.120;11.534;2023-12-04T13:34:31;8.40;;;6.00;;
7607;SDS011;3845;48.120;11.534;2023-12-04T13:36:56;9.67;;;6.60;;
7607;SDS011;3845;48.120;11.534;2023-12-04T13:39:22;8.20;;;6.30;;
7607;SDS011;3845;48.120;11.534;2023-12-04T13:42:01;8.30;;;6.10;;
7607;SDS011;3845;48.120;11.534;2023-12-04T13:44:45;10.00;;;7.10;;
7607;SDS011;3845;48.120;11.534;2023-12-04T13:47:11;10.20;;;7.40;;
7607;SDS011;3845;48.120;11.534;2023-12-04T13:49:37;8.50;;;6.67;;
7607;SDS011;3845;48.120;11.534;2023-12-04T13:52:02;9.07;;;6.00;;
7607;SDS011;3845;48.120;11.534;2023-12-04T13:54:32;8.60;;;6.00;;
7607;SDS011;3845;48.120;11.534;2023-12-04T13:57:09;10.13;;;6.50;;
7607;SDS011;3845;48.120;11.534;2023-12-04T13:59:38;7.77;;;5.50;;
7607;SDS011;3845;48.120;11.534;2023-12-04T14:02:04;8.87;;;6.50;;
7607;SDS011;3845;48.120;11.534;2023-12-04T14:04:35;9.90;;;6.63;;
7607;SDS011;3845;48.120;11.534;2023-12-04T14:07:00;9.00;;;6.60;;
7607;SDS011;3845;48.120;11.534;2023-12-04T14:09:26;8.37;;;5.83;;
7607;SDS011;3845;48.120;11.534;2023-12-04T14:11:52;8.70;;;6.30;;
7607;SDS011;3845;48.120;11.534;2023-12-04T14:14:17;11.03;;;7.47;;
7607;SDS011;3845;48.120;11.534;2023-12-04T14:16:42;9.60;;;6.80;;
7607;SDS011;3845;48.120;11.534;2023-12-04T14:19:10;13.33;;;8.87;;
7607;SDS011;3845;48.120;11.534;2023-12-04T14:21:36;14.57;;;9.47;;
7607;SDS011;3845;48.120;11.534;2023-12-04T14:24:02;13.73;;;8.33;;
7607;SDS011;3845;48.120;11.534;2023-12-04T14:26:27;16.60;;;8.50;;
7607;SDS011;3845;48.120;11.534;2023-12-04T14:28:52;14.07;;;7.37;;
7607;SDS011;3845;48.120;11.534;2023-12-04T14:31:18;12.70;;;6.97;;
7607;SDS011;3845;48.120;11.534;2023-12-04T14:33:43;11.80;;;6.87;;
7607;SDS011;3845;48.120;11.534;2023-12-04T14:36:08;11.30;;;8.30;;
7607;SDS011;3845;48.120;11.534;2023-12-04T14:38:34;13.60;;;9.50;;
7607;SDS011;3845;48.120;11.534;2023-12-04T14:41:00;13.10;;;8.47;;
7607;SDS011;3845;48.120;11.534;2023-12-04T14:43:27;13.70;;;9.97;;
7607;SDS011;3845;48.120;11.534;2023-12-04T14:45:52;13.23;;;9.03;;
7607;SDS011;3845;48.120;11.534;2023-12-04T14:48:17;12.97;;;8.53;;
7607;SDS011;3845;48.120;11.534;2023-12-04T14:50:42;13.40;;;9.23;;
7607;SDS011;3845;48.120;11.534;2023-12-04T14:53:08;12.07;;;8.87;;